sensor_id;sensor_type;location;lat;lon;timestamp;pressure;altitude;pressure_sealevel;temperature;humidity
58761;BME280;44529;47.464;19.014;2023-04-25T00:02:36;99180.00;;;11.91;92.19
58761;BME280;44529;47.464;19.014;2023-04-25T00:05:38;99174.06;;;11.85;91.25
58761;BME280;44529;47.464;19.014;2023-04-25T00:08:41;99166.12;;;11.92;88.30
58761;BME280;44529;47.464;19.014;2023-04-25T00:11:43;99171.88;;;11.91;87.79
58761;BME280;44529;47.464;19.014;2023-04-25T00:14:46;99162.09;;;11.86;88.44
58761;BME280;44529;47.464;19.014;2023-04-25T00:17:49;99162.44;;;11.85;90.83
58761;BME280;44529;47.464;19.014;2023-04-25T00:20:51;99164.88;;;11.90;88.16
58761;BME280;44529;47.464;19.014;2023-04-25T00:23:54;99151.69;;;11.88;87.29
58761;BME280;44529;47.464;19.014;2023-04-25T00:26:56;99158.78;;;11.93;85.88
58761;BME280;44529;47.464;19.014;2023-04-25T00:29:59;99151.88;;;11.96;86.20
58761;BME280;44529;47.464;19.014;2023-04-25T00:33:02;99148.03;;;11.97;85.16
58761;BME280;44529;47.464;19.014;2023-04-25T00:36:05;99144.91;;;11.95;86.67
58761;BME280;44529;47.464;19.014;2023-04-25T00:39:07;99136.34;;;11.92;87.18
58761;BME280;44529;47.464;19.014;2023-04-25T00:42:10;99136.34;;;11.92;86.15
58761;BME280;44529;47.464;19.014;2023-04-25T00:45:14;99136.66;;;11.91;86.51
58761;BME280;44529;47.464;19.014;2023-04-25T00:48:17;99129.19;;;12.00;87.50
58761;BME280;44529;47.464;19.014;2023-04-25T00:51:21;99133.28;;;11.94;86.16
58761;BME280;44529;47.464;19.014;2023-04-25T00:54:24;99118.59;;;11.95;87.03
58761;BME280;44529;47.464;19.014;2023-04-25T00:57:27;99112.13;;;12.00;86.12
58761;BME280;44529;47.464;19.014;2023-04-25T01:00:30;99111.59;;;11.94;86.48
58761;BME280;44529;47.464;19.014;2023-04-25T01:03:33;99113.88;;;11.92;85.34
58761;BME280;44529;47.464;19.014;2023-04-25T01:06:38;99112.22;;;11.87;84.46
58761;BME280;44529;47.464;19.014;2023-04-25T01:09:41;99107.94;;;11.86;84.47
58761;BME280;44529;47.464;19.014;2023-04-25T01:12:43;99097.69;;;11.96;84.54
58761;BME280;44529;47.464;19.014;2023-04-25T01:15:46;99098.94;;;11.98;84.75
58761;BME280;44529;47.464;19.014;2023-04-25T01:18:48;99099.09;;;11.89;84.48
58761;BME280;44529;47.464;19.014;2023-04-25T01:21:52;99097.53;;;11.88;84.17
58761;BME280;44529;47.464;19.014;2023-04-25T01:24:55;99098.84;;;11.95;84.04
58761;BME280;44529;47.464;19.014;2023-04-25T01:27:58;99107.56;;;11.88;83.79
58761;BME280;44529;47.464;19.014;2023-04-25T01:31:01;99084.34;;;11.87;84.12
58761;BME280;44529;47.464;19.014;2023-04-25T01:34:03;99103.66;;;11.85;83.55
58761;BME280;44529;47.464;19.014;2023-04-25T01:37:06;99082.19;;;11.80;84.18
58761;BME280;44529;47.464;19.014;2023-04-25T01:40:10;99098.81;;;11.79;84.51
58761;BME280;44529;47.464;19.014;2023-04-25T01:43:13;99086.06;;;11.79;85.93
58761;BME280;44529;47.464;19.014;2023-04-25T01:46:16;99086.72;;;11.76;84.32
58761;BME280;44529;47.464;19.014;2023-04-25T01:49:19;99096.59;;;11.69;83.38
58761;BME280;44529;47.464;19.014;2023-04-25T01:52:21;99078.53;;;11.73;83.46
58761;BME280;44529;47.464;19.014;2023-04-25T01:55:24;99084.81;;;11.77;83.68
58761;BME280;44529;47.464;19.014;2023-04-25T01:58:27;99085.25;;;11.79;83.04
58761;BME280;44529;47.464;19.014;2023-04-25T02:01:31;99076.69;;;11.77;81.98
58761;BME280;44529;47.464;19.014;2023-04-25T02:04:34;99078.59;;;11.76;81.93
58761;BME280;44529;47.464;19.014;2023-04-25T02:07:37;99078.72;;;11.80;81.57
58761;BME280;44529;47.464;19.014;2023-04-25T02:10:39;99093.41;;;11.79;82.92
58761;BME280;44529;47.464;19.014;2023-04-25T02:13:42;99102.44;;;11.71;82.48
58761;BME280;44529;47.464;19.014;2023-04-25T02:16:45;99093.87;;;11.69;82.67
58761;BME280;44529;47.464;19.014;2023-04-25T02:19:48;99096.34;;;11.74;81.88
58761;BME280;44529;47.464;19.014;2023-04-25T02:22:51;99089.16;;;11.65;81.76
58761;BME280;44529;47.464;19.014;2023-04-25T02:25:56;99094.66;;;11.69;82.19
58761;BME280;44529;47.464;19.014;2023-04-25T02:28:59;99096.59;;;11.69;81.24
58761;BME280;44529;47.464;19.014;2023-04-25T02:32:02;99098.94;;;11.54;82.06
58761;BME280;44529;47.464;19.014;2023-04-25T02:35:05;99099.91;;;11.62;80.46
58761;BME280;44529;47.464;19.014;2023-04-25T02:38:08;99091.66;;;11.58;80.93
58761;BME280;44529;47.464;19.014;2023-04-25T02:41:10;99092.13;;;11.60;78.99
58761;BME280;44529;47.464;19.014;2023-04-25T02:44:13;99085.94;;;11.60;79.91
58761;BME280;44529;47.464;19.014;2023-04-25T02:47:15;99088.19;;;11.58;78.57
58761;BME280;44529;47.464;19.014;2023-04-25T02:50:17;99089.06;;;11.62;79.64
58761;BME280;44529;47.464;19.014;2023-04-25T02:53:20;99099.78;;;11.58;78.83
58761;BME280;44529;47.464;19.014;2023-04-25T02:56:23;99094.66;;;11.53;79.38
58761;BME280;44529;47.464;19.014;2023-04-25T02:59:28;99101.56;;;11.66;79.25
58761;BME280;44529;47.464;19.014;2023-04-25T03:02:31;99103.44;;;11.50;79.66
58761;BME280;44529;47.464;19.014;2023-04-25T03:05:33;99095.69;;;11.49;79.79
58761;BME280;44529;47.464;19.014;2023-04-25T03:08:35;99104.22;;;11.51;79.40
58761;BME280;44529;47.464;19.014;2023-04-25T03:11:38;99100.38;;;11.52;79.62
58761;BME280;44529;47.464;19.014;2023-04-25T03:14:41;99097.22;;;11.34;79.59
58761;BME280;44529;47.464;19.014;2023-04-25T03:17:43;99102.16;;;11.32;81.17
58761;BME280;44529;47.464;19.014;2023-04-25T03:20:45;99094.94;;;11.36;79.87
58761;BME280;44529;47.464;19.014;2023-04-25T03:23:48;99105.56;;;11.29;80.12
58761;BME280;44529;47.464;19.014;2023-04-25T03:26:51;99077.22;;;11.38;79.83
58761;BME280;44529;47.464;19.014;2023-04-25T03:29:53;99088.56;;;11.28;79.61
58761;BME280;44529;47.464;19.014;2023-04-25T03:32:56;99100.94;;;11.29;79.11
58761;BME280;44529;47.464;19.014;2023-04-25T03:35:58;99085.50;;;11.30;79.26
58761;BME280;44529;47.464;19.014;2023-04-25T03:39:01;99106.59;;;11.24;79.44
58761;BME280;44529;47.464;19.014;2023-04-25T03:42:04;99088.44;;;11.25;80.12
58761;BME280;44529;47.464;19.014;2023-04-25T03:45:07;99080.91;;;11.18;80.28
58761;BME280;44529;47.464;19.014;2023-04-25T03:48:10;99102.47;;;11.15;79.64
58761;BME280;44529;47.464;19.014;2023-04-25T03:51:13;99097.94;;;11.19;79.20
58761;BME280;44529;47.464;19.014;2023-04-25T03:54:16;99116.75;;;11.27;78.71
58761;BME280;44529;47.464;19.014;2023-04-25T03:57:19;99107.63;;;11.20;79.77
58761;BME280;44529;47.464;19.014;2023-04-25T04:00:22;99119.94;;;11.17;80.14
58761;BME280;44529;47.464;19.014;2023-04-25T04:03:25;99112.25;;;11.19;80.83
58761;BME280;44529;47.464;19.014;2023-04-25T04:06:28;99109.22;;;11.21;80.09
58761;BME280;44529;47.464;19.014;2023-04-25T04:09:31;99114.41;;;11.13;79.90
58761;BME280;44529;47.464;19.014;2023-04-25T04:12:34;99141.94;;;11.03;79.67
58761;BME280;44529;47.464;19.014;2023-04-25T04:15:36;99135.16;;;11.09;80.46
58761;BME280;44529;47.464;19.014;2023-04-25T04:18:38;99127.41;;;10.96;82.08
58761;BME280;44529;47.464;19.014;2023-04-25T04:21:41;99130.34;;;11.03;81.65
58761;BME280;44529;47.464;19.014;2023-04-25T04:24:44;99127.97;;;11.01;82.11
58761;BME280;44529;47.464;19.014;2023-04-25T04:27:49;99140.59;;;10.97;83.07
58761;BME280;44529;47.464;19.014;2023-04-25T04:30:54;99139.91;;;10.88;83.41
58761;BME280;44529;47.464;19.014;2023-04-25T04:33:57;99132.06;;;10.83;84.54
58761;BME280;44529;47.464;19.014;2023-04-25T04:37:00;99130.72;;;10.77;85.61
58761;BME280;44529;47.464;19.014;2023-04-25T04:40:04;99142.66;;;10.76;86.69
58761;BME280;44529;47.464;19.014;2023-04-25T04:43:07;99142.53;;;10.72;86.16
58761;BME280;44529;47.464;19.014;2023-04-25T04:46:13;99143.75;;;10.75;86.20
58761;BME280;44529;47.464;19.014;2023-04-25T04:49:15;99140.28;;;10.62;85.71
58761;BME280;44529;47.464;19.014;2023-04-25T04:52:18;99142.97;;;10.74;86.40
58761;BME280;44529;47.464;19.014;2023-04-25T04:55:22;99130.38;;;10.66;87.86
58761;BME280;44529;47.464;19.014;2023-04-25T04:58:25;99138.84;;;10.65;87.39
58761;BME280;44529;47.464;19.014;2023-04-25T05:01:28;99131.94;;;10.67;87.82
58761;BME280;44529;47.464;19.014;2023-04-25T05:04:32;99135.00;;;10.66;88.68
58761;BME280;44529;47.464;19.014;2023-04-25T05:07:35;99134.22;;;10.53;89.08
58761;BME280;44529;47.464;19.014;2023-04-25T05:10:38;99141.53;;;10.40;90.50
58761;BME280;44529;47.464;19.014;2023-04-25T05:13:40;99134.66;;;10.43;89.98
58761;BME280;44529;47.464;19.014;2023-04-25T05:16:43;99143.56;;;10.43;90.45
58761;BME280;44529;47.464;19.014;2023-04-25T05:19:46;99137.59;;;10.38;91.17
58761;BME280;44529;47.464;19.014;2023-04-25T05:22:49;99149.19;;;10.26;92.87
58761;BME280;44529;47.464;19.014;2023-04-25T05:25:51;99150.03;;;10.18;92.47
58761;BME280;44529;47.464;19.014;2023-04-25T05:28:54;99144.50;;;10.14;94.38
58761;BME280;44529;47.464;19.014;2023-04-25T05:31:58;99153.03;;;10.04;97.08
58761;BME280;44529;47.464;19.014;2023-04-25T05:35:00;99148.97;;;9.98;97.57
58761;BME280;44529;47.464;19.014;2023-04-25T05:38:03;99138.56;;;9.75;98.67
58761;BME280;44529;47.464;19.014;2023-04-25T05:41:06;99137.88;;;9.66;100.00
58761;BME280;44529;47.464;19.014;2023-04-25T05:44:11;99147.16;;;9.57;100.00
58761;BME280;44529;47.464;19.014;2023-04-25T05:47:14;99151.78;;;9.56;100.00
58761;BME280;44529;47.464;19.014;2023-04-25T05:50:16;99135.50;;;9.65;100.00
58761;BME280;44529;47.464;19.014;2023-04-25T05:53:19;99142.34;;;9.62;100.00
58761;BME280;44529;47.464;19.014;2023-04-25T05:56:24;99145.13;;;9.54;100.00
58761;BME280;44529;47.464;19.014;2023-04-25T05:59:27;99155.53;;;9.43;100.00
58761;BME280;44529;47.464;19.014;2023-04-25T06:02:29;99159.69;;;9.40;100.00
58761;BME280;44529;47.464;19.014;2023-04-25T06:05:32;99156.38;;;9.56;100.00
58761;BME280;44529;47.464;19.014;2023-04-25T06:08:35;99162.22;;;9.58;100.00
58761;BME280;44529;47.464;19.014;2023-04-25T06:11:38;99153.88;;;9.50;100.00
58761;BME280;44529;47.464;19.014;2023-04-25T06:14:40;99155.84;;;9.62;100.00
58761;BME280;44529;47.464;19.014;2023-04-25T06:17:43;99159.72;;;9.73;100.00
58761;BME280;44529;47.464;19.014;2023-04-25T06:20:47;99161.09;;;9.80;100.00
58761;BME280;44529;47.464;19.014;2023-04-25T06:23:51;99169.97;;;9.80;100.00
58761;BME280;44529;47.464;19.014;2023-04-25T06:26:54;99169.22;;;9.92;100.00
58761;BME280;44529;47.464;19.014;2023-04-25T06:29:56;99171.38;;;9.98;100.00
58761;BME280;44529;47.464;19.014;2023-04-25T06:32:59;99172.28;;;10.02;100.00
58761;BME280;44529;47.464;19.014;2023-04-25T06:36:03;99179.94;;;10.00;100.00
58761;BME280;44529;47.464;19.014;2023-04-25T06:39:06;99163.28;;;9.98;100.00
58761;BME280;44529;47.464;19.014;2023-04-25T06:42:09;99173.06;;;10.03;100.00
58761;BME280;44529;47.464;19.014;2023-04-25T06:45:12;99169.56;;;10.02;100.00
58761;BME280;44529;47.464;19.014;2023-04-25T06:48:15;99183.03;;;10.23;100.00
58761;BME280;44529;47.464;19.014;2023-04-25T06:51:17;99174.47;;;10.21;98.82
58761;BME280;44529;47.464;19.014;2023-04-25T06:54:20;99172.50;;;10.10;100.00
58761;BME280;44529;47.464;19.014;2023-04-25T06:57:23;99176.59;;;10.16;100.00
58761;BME280;44529;47.464;19.014;2023-04-25T07:00:26;99182.00;;;10.16;98.88
58761;BME280;44529;47.464;19.014;2023-04-25T07:03:30;99176.78;;;10.11;100.00
58761;BME280;44529;47.464;19.014;2023-04-25T07:06:35;99178.41;;;10.12;100.00
58761;BME280;44529;47.464;19.014;2023-04-25T07:09:45;99185.81;;;10.15;100.00
58761;BME280;44529;47.464;19.014;2023-04-25T07:12:48;99184.75;;;10.28;99.26
58761;BME280;44529;47.464;19.014;2023-04-25T07:15:51;99189.59;;;10.35;98.75
58761;BME280;44529;47.464;19.014;2023-04-25T07:18:56;99179.16;;;10.45;98.45
58761;BME280;44529;47.464;19.014;2023-04-25T07:21:58;99182.28;;;10.47;99.76
58761;BME280;44529;47.464;19.014;2023-04-25T07:25:01;99188.81;;;10.46;100.00
58761;BME280;44529;47.464;19.014;2023-04-25T07:28:04;99185.34;;;10.58;98.21
58761;BME280;44529;47.464;19.014;2023-04-25T07:31:06;99187.59;;;10.68;95.87
58761;BME280;44529;47.464;19.014;2023-04-25T07:34:09;99185.22;;;10.79;95.45
58761;BME280;44529;47.464;19.014;2023-04-25T07:37:13;99194.91;;;10.80;95.11
58761;BME280;44529;47.464;19.014;2023-04-25T07:40:17;99201.34;;;10.88;95.43
58761;BME280;44529;47.464;19.014;2023-04-25T07:43:20;99193.22;;;11.00;91.59
58761;BME280;44529;47.464;19.014;2023-04-25T07:46:23;99206.38;;;11.13;93.28
58761;BME280;44529;47.464;19.014;2023-04-25T07:49:27;99202.22;;;11.16;92.42
58761;BME280;44529;47.464;19.014;2023-04-25T07:52:29;99200.16;;;11.25;91.05
58761;BME280;44529;47.464;19.014;2023-04-25T07:55:33;99205.41;;;11.46;90.32
58761;BME280;44529;47.464;19.014;2023-04-25T07:58:36;99195.69;;;11.57;88.95
58761;BME280;44529;47.464;19.014;2023-04-25T08:01:39;99182.62;;;11.59;88.61
58761;BME280;44529;47.464;19.014;2023-04-25T08:04:42;99187.16;;;11.71;86.81
58761;BME280;44529;47.464;19.014;2023-04-25T08:07:44;99200.81;;;11.75;84.83
58761;BME280;44529;47.464;19.014;2023-04-25T08:10:47;99199.00;;;11.79;84.29
58761;BME280;44529;47.464;19.014;2023-04-25T08:13:50;99200.47;;;11.88;87.47
58761;BME280;44529;47.464;19.014;2023-04-25T08:16:53;99204.59;;;11.98;82.10
58761;BME280;44529;47.464;19.014;2023-04-25T08:19:55;99201.00;;;11.94;84.40
58761;BME280;44529;47.464;19.014;2023-04-25T08:23:00;99207.56;;;11.93;82.49
58761;BME280;44529;47.464;19.014;2023-04-25T08:26:04;99206.72;;;12.05;81.60
58761;BME280;44529;47.464;19.014;2023-04-25T08:29:08;99215.72;;;12.09;82.51
58761;BME280;44529;47.464;19.014;2023-04-25T08:32:11;99205.94;;;12.20;81.69
58761;BME280;44529;47.464;19.014;2023-04-25T08:35:15;99204.84;;;12.37;79.52
58761;BME280;44529;47.464;19.014;2023-04-25T08:38:19;99213.75;;;12.53;81.54
58761;BME280;44529;47.464;19.014;2023-04-25T08:41:22;99214.28;;;12.43;79.67
58761;BME280;44529;47.464;19.014;2023-04-25T08:44:26;99230.44;;;12.55;80.78
58761;BME280;44529;47.464;19.014;2023-04-25T08:47:29;99223.03;;;12.68;78.12
58761;BME280;44529;47.464;19.014;2023-04-25T08:50:34;99227.16;;;12.78;77.14
58761;BME280;44529;47.464;19.014;2023-04-25T08:53:37;99223.66;;;12.77;77.96
58761;BME280;44529;47.464;19.014;2023-04-25T08:56:45;99229.94;;;12.81;77.70
58761;BME280;44529;47.464;19.014;2023-04-25T08:59:49;99226.44;;;12.81;79.07
58761;BME280;44529;47.464;19.014;2023-04-25T09:02:52;99229.06;;;12.77;77.52
58761;BME280;44529;47.464;19.014;2023-04-25T09:05:55;99230.44;;;12.87;80.59
58761;BME280;44529;47.464;19.014;2023-04-25T09:09:05;99229.41;;;12.91;79.25
58761;BME280;44529;47.464;19.014;2023-04-25T09:12:08;99231.41;;;12.94;77.45
58761;BME280;44529;47.464;19.014;2023-04-25T09:15:12;99240.22;;;13.07;75.64
58761;BME280;44529;47.464;19.014;2023-04-25T09:18:27;99241.28;;;13.18;75.61
58761;BME280;44529;47.464;19.014;2023-04-25T09:21:34;99239.19;;;13.27;74.34
58761;BME280;44529;47.464;19.014;2023-04-25T09:24:42;99228.03;;;13.33;74.91
58761;BME280;44529;47.464;19.014;2023-04-25T09:27:50;99230.94;;;13.40;73.57
58761;BME280;44529;47.464;19.014;2023-04-25T09:30:56;99239.22;;;13.47;72.67
58761;BME280;44529;47.464;19.014;2023-04-25T09:34:00;99228.88;;;13.52;74.59
58761;BME280;44529;47.464;19.014;2023-04-25T09:37:04;99225.16;;;13.61;74.10
58761;BME280;44529;47.464;19.014;2023-04-25T09:40:08;99227.25;;;13.67;72.32
58761;BME280;44529;47.464;19.014;2023-04-25T09:43:21;99216.13;;;13.95;72.15
58761;BME280;44529;47.464;19.014;2023-04-25T09:46:24;99223.56;;;14.18;70.18
58761;BME280;44529;47.464;19.014;2023-04-25T09:49:30;99231.50;;;14.26;71.80
58761;BME280;44529;47.464;19.014;2023-04-25T09:52:33;99230.91;;;14.36;71.61
58761;BME280;44529;47.464;19.014;2023-04-25T09:55:37;99228.69;;;14.23;69.28
58761;BME280;44529;47.464;19.014;2023-04-25T09:58:40;99226.88;;;14.07;71.75
58761;BME280;44529;47.464;19.014;2023-04-25T10:01:43;99229.22;;;14.09;68.88
58761;BME280;44529;47.464;19.014;2023-04-25T10:04:51;99228.38;;;14.05;68.75
58761;BME280;44529;47.464;19.014;2023-04-25T10:07:58;99233.50;;;13.91;69.05
58761;BME280;44529;47.464;19.014;2023-04-25T10:11:02;99236.22;;;13.91;70.10
58761;BME280;44529;47.464;19.014;2023-04-25T10:14:05;99236.69;;;13.93;68.28
58761;BME280;44529;47.464;19.014;2023-04-25T10:17:10;99225.16;;;13.80;68.42
58761;BME280;44529;47.464;19.014;2023-04-25T10:20:12;99233.38;;;13.64;70.17
58761;BME280;44529;47.464;19.014;2023-04-25T10:23:16;99232.31;;;13.69;71.24
58761;BME280;44529;47.464;19.014;2023-04-25T10:26:24;99236.53;;;13.66;70.85
58761;BME280;44529;47.464;19.014;2023-04-25T10:29:31;99238.94;;;13.71;69.90
58761;BME280;44529;47.464;19.014;2023-04-25T10:32:35;99226.50;;;13.70;68.42
58761;BME280;44529;47.464;19.014;2023-04-25T10:35:38;99226.47;;;13.86;69.74
58761;BME280;44529;47.464;19.014;2023-04-25T10:38:42;99225.28;;;14.06;70.70
58761;BME280;44529;47.464;19.014;2023-04-25T10:41:52;99228.47;;;14.31;66.66
58761;BME280;44529;47.464;19.014;2023-04-25T10:45:04;99231.34;;;14.61;64.64
58761;BME280;44529;47.464;19.014;2023-04-25T10:48:25;99230.25;;;14.66;66.27
58761;BME280;44529;47.464;19.014;2023-04-25T10:51:29;99225.22;;;14.68;63.06
58761;BME280;44529;47.464;19.014;2023-04-25T10:54:55;99237.66;;;14.66;63.74
58761;BME280;44529;47.464;19.014;2023-04-25T10:57:58;99252.19;;;14.54;62.62
58761;BME280;44529;47.464;19.014;2023-04-25T11:01:01;99245.03;;;14.65;61.82
58761;BME280;44529;47.464;19.014;2023-04-25T11:04:03;99240.72;;;14.64;62.77
58761;BME280;44529;47.464;19.014;2023-04-25T11:07:22;99244.53;;;14.59;60.48
58761;BME280;44529;47.464;19.014;2023-04-25T11:10:28;99240.47;;;14.73;61.83
58761;BME280;44529;47.464;19.014;2023-04-25T11:13:31;99234.75;;;15.04;58.44
58761;BME280;44529;47.464;19.014;2023-04-25T11:16:33;99237.06;;;15.02;58.86
58761;BME280;44529;47.464;19.014;2023-04-25T11:19:36;99241.28;;;15.00;59.25
58761;BME280;44529;47.464;19.014;2023-04-25T11:22:39;99246.13;;;15.10;58.42
58761;BME280;44529;47.464;19.014;2023-04-25T11:25:44;99244.72;;;15.46;60.02
58761;BME280;44529;47.464;19.014;2023-04-25T11:28:49;99250.19;;;15.76;59.17
58761;BME280;44529;47.464;19.014;2023-04-25T11:31:52;99254.56;;;15.58;57.16
58761;BME280;44529;47.464;19.014;2023-04-25T11:34:55;99248.84;;;15.36;58.76
58761;BME280;44529;47.464;19.014;2023-04-25T11:37:57;99251.00;;;15.24;60.54
58761;BME280;44529;47.464;19.014;2023-04-25T11:41:00;99252.44;;;15.14;57.63
58761;BME280;44529;47.464;19.014;2023-04-25T11:44:06;99253.53;;;14.86;57.42
58761;BME280;44529;47.464;19.014;2023-04-25T11:47:08;99256.13;;;14.79;59.71
58761;BME280;44529;47.464;19.014;2023-04-25T11:50:11;99266.06;;;14.68;57.75
58761;BME280;44529;47.464;19.014;2023-04-25T11:53:13;99257.59;;;14.73;57.49
58761;BME280;44529;47.464;19.014;2023-04-25T11:56:16;99275.31;;;14.86;58.11
58761;BME280;44529;47.464;19.014;2023-04-25T11:59:23;99275.06;;;14.95;57.47
58761;BME280;44529;47.464;19.014;2023-04-25T12:02:31;99277.97;;;14.83;57.73
58761;BME280;44529;47.464;19.014;2023-04-25T12:05:34;99277.13;;;15.02;57.79
58761;BME280;44529;47.464;19.014;2023-04-25T12:08:38;99297.78;;;15.29;54.00
58761;BME280;44529;47.464;19.014;2023-04-25T12:14:49;99282.47;;;15.48;51.68
58761;BME280;44529;47.464;19.014;2023-04-25T12:17:53;99277.91;;;15.82;50.55
58761;BME280;44529;47.464;19.014;2023-04-25T12:20:57;99274.31;;;16.08;50.76
58761;BME280;44529;47.464;19.014;2023-04-25T12:24:13;99292.16;;;16.35;49.99
58761;BME280;44529;47.464;19.014;2023-04-25T12:27:16;99269.56;;;16.35;48.97
58761;BME280;44529;47.464;19.014;2023-04-25T12:30:20;99279.03;;;16.44;48.21
58761;BME280;44529;47.464;19.014;2023-04-25T12:33:24;99282.94;;;16.47;46.92
58761;BME280;44529;47.464;19.014;2023-04-25T12:36:26;99279.88;;;16.52;46.95
58761;BME280;44529;47.464;19.014;2023-04-25T12:39:29;99266.28;;;16.22;46.55
58761;BME280;44529;47.464;19.014;2023-04-25T12:42:31;99283.22;;;16.01;46.93
58761;BME280;44529;47.464;19.014;2023-04-25T12:45:33;99260.38;;;15.83;46.65
58761;BME280;44529;47.464;19.014;2023-04-25T12:48:36;99259.78;;;15.96;48.82
58761;BME280;44529;47.464;19.014;2023-04-25T12:51:40;99259.03;;;16.00;49.10
58761;BME280;44529;47.464;19.014;2023-04-25T12:54:43;99248.97;;;16.04;46.59
58761;BME280;44529;47.464;19.014;2023-04-25T12:57:46;99243.62;;;16.14;44.95
58761;BME280;44529;47.464;19.014;2023-04-25T13:00:48;99236.47;;;16.03;44.80
58761;BME280;44529;47.464;19.014;2023-04-25T13:03:50;99250.62;;;16.12;45.85
58761;BME280;44529;47.464;19.014;2023-04-25T13:06:54;99247.63;;;16.24;47.16
58761;BME280;44529;47.464;19.014;2023-04-25T13:09:56;99252.44;;;16.38;46.48
58761;BME280;44529;47.464;19.014;2023-04-25T13:12:59;99262.50;;;16.30;45.84
58761;BME280;44529;47.464;19.014;2023-04-25T13:16:01;99250.00;;;16.29;45.17
58761;BME280;44529;47.464;19.014;2023-04-25T13:19:04;99243.25;;;16.16;45.73
58761;BME280;44529;47.464;19.014;2023-04-25T13:22:07;99240.44;;;16.09;43.62
58761;BME280;44529;47.464;19.014;2023-04-25T13:25:09;99245.97;;;16.16;42.76
58761;BME280;44529;47.464;19.014;2023-04-25T13:28:12;99249.94;;;16.22;43.07
58761;BME280;44529;47.464;19.014;2023-04-25T13:31:15;99244.91;;;16.24;43.34
58761;BME280;44529;47.464;19.014;2023-04-25T13:34:17;99234.00;;;16.24;43.36
58761;BME280;44529;47.464;19.014;2023-04-25T13:37:19;99229.78;;;16.30;43.64
58761;BME280;44529;47.464;19.014;2023-04-25T13:40:22;99216.13;;;16.30;43.93
58761;BME280;44529;47.464;19.014;2023-04-25T13:43:26;99233.22;;;16.27;43.29
58761;BME280;44529;47.464;19.014;2023-04-25T13:46:29;99243.75;;;16.25;43.06
58761;BME280;44529;47.464;19.014;2023-04-25T13:49:49;99226.63;;;16.28;42.18
58761;BME280;44529;47.464;19.014;2023-04-25T13:52:51;99237.13;;;16.26;43.61
58761;BME280;44529;47.464;19.014;2023-04-25T13:55:54;99227.50;;;16.02;42.73
58761;BME280;44529;47.464;19.014;2023-04-25T13:58:56;99236.84;;;16.01;42.91
58761;BME280;44529;47.464;19.014;2023-04-25T14:01:59;99227.31;;;16.18;43.27
58761;BME280;44529;47.464;19.014;2023-04-25T14:05:03;99228.28;;;16.36;44.25
58761;BME280;44529;47.464;19.014;2023-04-25T14:08:07;99220.00;;;16.29;43.02
58761;BME280;44529;47.464;19.014;2023-04-25T14:11:10;99226.22;;;16.26;44.49
58761;BME280;44529;47.464;19.014;2023-04-25T14:14:12;99225.38;;;16.18;43.49
58761;BME280;44529;47.464;19.014;2023-04-25T14:17:18;99229.59;;;16.16;42.54
58761;BME280;44529;47.464;19.014;2023-04-25T14:20:20;99226.94;;;16.19;43.85
58761;BME280;44529;47.464;19.014;2023-04-25T14:23:26;99232.72;;;16.14;43.60
58761;BME280;44529;47.464;19.014;2023-04-25T14:26:28;99232.69;;;16.11;40.88
58761;BME280;44529;47.464;19.014;2023-04-25T14:29:31;99229.28;;;15.87;40.23
58761;BME280;44529;47.464;19.014;2023-04-25T14:32:33;99236.44;;;15.99;41.20
58761;BME280;44529;47.464;19.014;2023-04-25T14:35:35;99236.16;;;16.08;40.95
58761;BME280;44529;47.464;19.014;2023-04-25T14:38:38;99234.50;;;16.00;41.04
58761;BME280;44529;47.464;19.014;2023-04-25T14:41:40;99224.25;;;15.89;40.99
58761;BME280;44529;47.464;19.014;2023-04-25T14:44:42;99223.91;;;15.94;42.11
58761;BME280;44529;47.464;19.014;2023-04-25T14:47:45;99230.25;;;16.02;42.05
58761;BME280;44529;47.464;19.014;2023-04-25T14:50:47;99219.44;;;16.13;43.11
58761;BME280;44529;47.464;19.014;2023-04-25T14:53:50;99216.66;;;16.06;43.12
58761;BME280;44529;47.464;19.014;2023-04-25T14:56:53;99219.84;;;16.15;43.14
58761;BME280;44529;47.464;19.014;2023-04-25T14:59:55;99210.50;;;16.16;41.85
58761;BME280;44529;47.464;19.014;2023-04-25T15:02:58;99216.47;;;16.25;43.02
58761;BME280;44529;47.464;19.014;2023-04-25T15:06:01;99220.50;;;16.42;43.32
58761;BME280;44529;47.464;19.014;2023-04-25T15:09:04;99222.19;;;16.53;41.33
58761;BME280;44529;47.464;19.014;2023-04-25T15:12:07;99233.03;;;16.43;41.63
58761;BME280;44529;47.464;19.014;2023-04-25T15:15:09;99227.50;;;16.39;40.98
58761;BME280;44529;47.464;19.014;2023-04-25T15:18:26;99224.72;;;16.32;42.27
58761;BME280;44529;47.464;19.014;2023-04-25T15:21:30;99243.47;;;16.00;41.07
58761;BME280;44529;47.464;19.014;2023-04-25T15:24:32;99245.87;;;15.75;42.95
58761;BME280;44529;47.464;19.014;2023-04-25T15:27:35;99239.81;;;15.59;42.74
58761;BME280;44529;47.464;19.014;2023-04-25T15:30:45;99249.31;;;15.42;42.86
58761;BME280;44529;47.464;19.014;2023-04-25T15:33:47;99240.78;;;15.17;42.79
58761;BME280;44529;47.464;19.014;2023-04-25T15:36:50;99254.37;;;15.13;44.27
58761;BME280;44529;47.464;19.014;2023-04-25T15:40:02;99238.16;;;14.98;45.12
58761;BME280;44529;47.464;19.014;2023-04-25T15:43:08;99240.00;;;14.90;45.99
58761;BME280;44529;47.464;19.014;2023-04-25T15:46:16;99236.38;;;14.82;47.07
58761;BME280;44529;47.464;19.014;2023-04-25T15:49:19;99243.00;;;14.85;47.03
58761;BME280;44529;47.464;19.014;2023-04-25T15:52:22;99252.03;;;14.66;47.00
58761;BME280;44529;47.464;19.014;2023-04-25T15:55:25;99261.94;;;14.55;51.27
58761;BME280;44529;47.464;19.014;2023-04-25T15:58:27;99264.81;;;14.43;52.69
58761;BME280;44529;47.464;19.014;2023-04-25T16:01:30;99260.25;;;14.27;55.18
58761;BME280;44529;47.464;19.014;2023-04-25T16:04:33;99261.03;;;14.28;56.42